createdAt,value
2023-04-20T00:01:13.833Z,2.17
2023-04-20T00:06:15.571Z,2.60
2023-04-20T00:11:17.267Z,2.17
2023-04-20T00:16:18.925Z,2.17
2023-04-20T00:21:24.342Z,2.40
2023-04-20T00:26:26.199Z,2.03
2023-04-20T00:31:28.793Z,2.40
2023-04-20T00:36:30.500Z,2.33
2023-04-20T00:41:33.471Z,2.10
2023-04-20T00:46:35.567Z,2.43
2023-04-20T00:51:39.867Z,2.27
2023-04-20T00:56:41.805Z,2.50
2023-04-20T01:01:43.593Z,2.40
2023-04-20T01:06:45.414Z,2.40
2023-04-20T01:11:47.251Z,2.33
2023-04-20T01:16:52.099Z,2.80
2023-04-20T01:21:53.630Z,2.00
2023-04-20T01:26:55.240Z,2.57
2023-04-20T01:31:56.821Z,2.53
2023-04-20T01:36:59.796Z,2.00
2023-04-20T01:42:01.680Z,2.20
2023-04-20T01:47:03.471Z,2.43
2023-04-20T01:52:05.615Z,2.40
2023-04-20T01:57:07.227Z,2.33
2023-04-20T02:02:08.860Z,2.20
2023-04-20T02:07:10.644Z,2.30
2023-04-20T02:12:13.832Z,1.90
2023-04-20T02:17:15.504Z,2.00
2023-04-20T02:22:17.191Z,2.20
2023-04-20T02:27:18.786Z,2.23
2023-04-20T02:32:20.918Z,2.30
2023-04-20T02:37:24.336Z,2.10
2023-04-20T02:42:26.045Z,2.77
2023-04-20T02:47:30.173Z,2.00
2023-04-20T02:52:31.807Z,2.37
2023-04-20T02:57:35.516Z,2.50
2023-04-20T03:02:37.554Z,2.70
2023-04-20T03:07:39.749Z,2.20
2023-04-20T03:12:42.940Z,2.10
2023-04-20T03:18:15.211Z,2.20
2023-04-20T03:23:16.848Z,2.10
2023-04-20T03:28:18.488Z,2.30
2023-04-20T03:33:21.114Z,2.60
2023-04-20T03:38:22.957Z,2.37
2023-04-20T03:43:24.629Z,2.27
2023-04-20T03:48:26.469Z,2.20
2023-04-20T03:53:29.103Z,2.30
2023-04-20T03:58:31.214Z,2.33
2023-04-20T04:03:42.532Z,2.93
2023-04-20T04:08:46.210Z,2.87
2023-04-20T04:13:48.001Z,2.63
2023-04-20T04:18:50.158Z,2.33
2023-04-20T04:23:51.846Z,2.30
2023-04-20T04:29:04.623Z,2.67
2023-04-20T04:34:07.791Z,2.63
2023-04-20T04:39:16.032Z,2.80
2023-04-20T04:44:28.196Z,2.50
2023-04-20T04:49:30.870Z,2.57
2023-04-20T04:54:32.570Z,2.57
2023-04-20T04:59:34.241Z,2.57
2023-04-20T05:04:36.034Z,2.70
2023-04-20T05:09:37.793Z,2.80
2023-04-20T05:14:39.395Z,2.77
2023-04-20T05:19:42.079Z,2.50
2023-04-20T05:24:43.700Z,2.93
2023-04-20T05:29:45.311Z,2.90
2023-04-20T05:34:46.892Z,2.80
2023-04-20T05:39:48.567Z,2.77
2023-04-20T05:44:50.135Z,2.60
2023-04-20T05:49:52.094Z,2.47
2023-04-20T05:54:53.657Z,2.90
2023-04-20T05:59:56.116Z,2.70
2023-04-20T06:04:57.993Z,2.73
2023-04-20T06:10:21.491Z,3.63
2023-04-20T06:15:25.690Z,2.60
2023-04-20T06:20:27.377Z,3.30
2023-04-20T06:25:29.130Z,2.80
2023-04-20T06:30:30.943Z,2.83
2023-04-20T06:35:32.601Z,3.13
2023-04-20T06:40:35.676Z,3.20
2023-04-20T06:45:40.301Z,2.63
2023-04-20T06:50:42.163Z,2.57
2023-04-20T06:55:44.044Z,2.70
2023-04-20T07:00:47.718Z,2.87
2023-04-20T07:05:49.359Z,2.57
2023-04-20T07:10:51.066Z,3.20
2023-04-20T07:15:52.892Z,2.67
2023-04-20T07:20:54.537Z,2.80
2023-04-20T07:25:57.128Z,2.60
2023-04-20T07:30:59.503Z,3.30
2023-04-20T07:36:01.790Z,2.80
2023-04-20T07:41:03.543Z,2.83
2023-04-20T07:46:05.475Z,2.80
2023-04-20T07:51:07.062Z,2.60
2023-04-20T07:56:08.782Z,2.30
2023-04-20T08:01:11.468Z,2.30
2023-04-20T08:06:13.485Z,2.67
2023-04-20T08:11:15.412Z,2.17
2023-04-20T08:16:17.592Z,2.27
2023-04-20T08:21:25.382Z,2.00
2023-04-20T08:26:28.961Z,2.00
2023-04-20T08:31:30.958Z,1.80
2023-04-20T08:36:32.703Z,2.30
2023-04-20T08:41:34.403Z,2.30
2023-04-20T08:46:36.156Z,2.00
2023-04-20T08:51:39.924Z,1.90
2023-04-20T08:56:43.745Z,1.90
2023-04-20T09:01:45.827Z,1.80
2023-04-20T09:06:50.449Z,2.30
2023-04-20T09:12:06.855Z,1.60
2023-04-20T09:17:08.664Z,1.80
2023-04-20T09:22:10.398Z,2.00
2023-04-20T09:27:16.171Z,2.10
2023-04-20T09:32:30.812Z,1.87
2023-04-20T09:37:32.535Z,1.60
2023-04-20T09:42:37.141Z,1.50
2023-04-20T09:47:41.819Z,1.60
2023-04-20T09:52:45.929Z,1.63
2023-04-20T09:57:48.725Z,1.63
2023-04-20T10:02:51.522Z,1.50
2023-04-20T10:07:59.979Z,1.80
2023-04-20T10:13:02.057Z,1.73
2023-04-20T10:18:18.183Z,1.50
2023-04-20T10:23:20.079Z,1.27
2023-04-20T10:28:22.452Z,1.20
2023-04-20T10:33:23.994Z,1.20
2023-04-20T10:38:32.177Z,1.20
2023-04-20T10:43:35.385Z,1.63
2023-04-20T10:48:36.960Z,1.30
2023-04-20T10:53:38.582Z,1.37
2023-04-20T10:58:41.971Z,1.80
2023-04-20T11:03:52.172Z,1.80
2023-04-20T11:08:53.786Z,1.63
2023-04-20T11:14:08.598Z,1.77
2023-04-20T11:19:10.270Z,1.60
2023-04-20T11:24:22.361Z,1.50
2023-04-20T11:29:42.204Z,2.13
2023-04-20T11:34:46.111Z,1.60
2023-04-20T11:39:59.659Z,1.67
2023-04-20T11:45:01.457Z,1.63
2023-04-20T11:50:03.132Z,2.40
2023-04-20T11:55:05.382Z,1.70
2023-04-20T12:00:07.907Z,1.80
2023-04-20T12:05:15.371Z,1.70
2023-04-20T12:10:17.165Z,1.73
2023-04-20T12:15:18.833Z,1.70
2023-04-20T12:20:20.352Z,1.70
2023-04-20T12:25:21.964Z,2.23
2023-04-20T12:30:23.557Z,2.47
2023-04-20T12:35:25.198Z,2.33
2023-04-20T12:40:26.985Z,2.20
2023-04-20T12:45:28.947Z,2.60
2023-04-20T12:50:30.567Z,2.13
2023-04-20T12:55:32.313Z,2.60
2023-04-20T13:00:43.208Z,2.43
2023-04-20T13:05:44.949Z,2.40
2023-04-20T13:10:46.539Z,2.27
2023-04-20T13:15:48.271Z,2.50
2023-04-20T13:20:49.951Z,1.90
2023-04-20T13:25:52.111Z,2.40
2023-04-20T13:30:55.434Z,2.23
2023-04-20T13:35:57.074Z,2.10
2023-04-20T13:40:58.642Z,2.07
2023-04-20T13:46:00.374Z,1.87
2023-04-20T13:51:02.043Z,2.20
2023-04-20T13:56:04.952Z,2.07
2023-04-20T14:01:11.604Z,1.80
2023-04-20T14:06:13.256Z,1.97
2023-04-20T14:11:15.413Z,2.23
2023-04-20T14:16:17.061Z,1.97
2023-04-20T14:21:18.672Z,2.13
2023-04-20T14:26:20.864Z,2.10
2023-04-20T14:31:22.573Z,2.20
2023-04-20T14:36:24.469Z,2.10
2023-04-20T14:41:26.063Z,2.20
2023-04-20T14:46:27.927Z,2.17
2023-04-20T14:51:29.548Z,1.90
2023-04-20T14:56:31.221Z,1.63
2023-04-20T15:01:32.930Z,2.27
2023-04-20T15:06:34.685Z,2.23
2023-04-20T15:11:36.835Z,2.00
2023-04-20T15:16:38.495Z,2.00
2023-04-20T15:21:41.995Z,2.10
2023-04-20T15:26:44.492Z,2.30
2023-04-20T15:31:46.880Z,2.33
2023-04-20T15:36:49.677Z,2.30
2023-04-20T15:41:53.295Z,1.93
2023-04-20T15:46:55.287Z,1.93
2023-04-20T15:51:57.233Z,1.90
2023-04-20T15:56:59.245Z,1.87
2023-04-20T16:02:01.330Z,1.77
2023-04-20T16:07:03.429Z,2.13
2023-04-20T16:12:05.780Z,2.00
2023-04-20T16:17:07.713Z,1.90
2023-04-20T16:22:09.381Z,2.00
2023-04-20T16:27:11.027Z,1.77
2023-04-20T16:32:12.834Z,1.87
2023-04-20T16:37:14.436Z,1.97
2023-04-20T16:42:16.182Z,1.93
2023-04-20T16:47:17.844Z,1.83
2023-04-20T16:52:19.435Z,2.20
2023-04-20T16:57:21.469Z,2.37
2023-04-20T17:02:25.272Z,2.07
2023-04-20T17:07:29.809Z,2.03
2023-04-20T17:12:31.581Z,2.43
2023-04-20T17:17:34.211Z,2.40
2023-04-20T17:22:35.939Z,2.40
2023-04-20T17:27:37.513Z,2.43
2023-04-20T17:32:39.372Z,2.70
2023-04-20T17:37:42.265Z,2.77
2023-04-20T17:42:43.990Z,2.60
2023-04-20T17:47:46.102Z,2.23
2023-04-20T17:52:48.783Z,2.73
2023-04-20T17:57:50.946Z,2.30
2023-04-20T18:02:52.745Z,2.40
2023-04-20T18:07:54.417Z,2.83
2023-04-20T18:12:56.333Z,2.67
2023-04-20T18:17:58.123Z,2.73
2023-04-20T18:22:59.765Z,2.80
2023-04-20T18:28:01.511Z,2.67
2023-04-20T18:33:03.569Z,3.60
2023-04-20T18:38:06.049Z,3.00
2023-04-20T18:43:07.657Z,2.90
2023-04-20T18:48:09.314Z,2.93
2023-04-20T18:53:11.172Z,2.93
2023-04-20T18:58:12.820Z,2.90
2023-04-20T19:03:14.521Z,3.30
2023-04-20T19:08:16.744Z,3.37
2023-04-20T19:13:18.754Z,3.20
2023-04-20T19:18:20.538Z,3.30
2023-04-20T19:23:22.226Z,3.27
2023-04-20T19:28:24.318Z,3.80
2023-04-20T19:33:26.097Z,3.40
2023-04-20T19:38:31.098Z,3.40
2023-04-20T19:43:32.728Z,3.47
2023-04-20T19:48:34.507Z,3.40
2023-04-20T19:53:37.408Z,4.20
2023-04-20T19:58:39.050Z,3.30
2023-04-20T20:03:43.000Z,3.53
2023-04-20T20:08:45.010Z,3.20
2023-04-20T20:13:47.105Z,3.60
2023-04-20T20:18:48.915Z,3.70
2023-04-20T20:23:50.532Z,4.50
2023-04-20T20:28:52.213Z,4.20
2023-04-20T20:33:55.048Z,3.70
2023-04-20T20:38:57.332Z,4.40
2023-04-20T20:43:59.698Z,4.43
2023-04-20T20:49:01.475Z,3.70
2023-04-20T20:54:03.249Z,4.30
2023-04-20T20:59:04.767Z,4.10
2023-04-20T21:04:06.527Z,4.17
2023-04-20T21:09:08.280Z,4.30
2023-04-20T21:14:09.919Z,4.37
2023-04-20T21:19:12.064Z,4.60
2023-04-20T21:24:13.668Z,4.70
2023-04-20T21:29:15.361Z,4.57
2023-04-20T21:34:16.887Z,5.67
2023-04-20T21:39:18.783Z,4.87
2023-04-20T21:44:20.655Z,5.37
2023-04-20T21:49:22.282Z,4.70
2023-04-20T21:54:23.789Z,4.63
2023-04-20T21:59:25.632Z,5.00
2023-04-20T22:04:28.521Z,5.07
2023-04-20T22:09:30.413Z,5.07
2023-04-20T22:14:32.220Z,5.17
2023-04-20T22:19:33.840Z,5.57
2023-04-20T22:24:35.487Z,5.43
2023-04-20T22:29:37.046Z,4.97
2023-04-20T22:34:38.663Z,4.73
2023-04-20T22:39:40.347Z,5.93
2023-04-20T22:44:42.020Z,4.80
2023-04-20T22:49:43.819Z,4.53
2023-04-20T22:54:48.151Z,5.37
2023-04-20T22:59:50.087Z,5.30
2023-04-20T23:04:51.701Z,5.13
2023-04-20T23:09:53.836Z,5.20
2023-04-20T23:14:56.793Z,4.77
2023-04-20T23:19:58.616Z,4.90
2023-04-20T23:25:00.182Z,4.87
2023-04-20T23:30:01.770Z,4.70
2023-04-20T23:35:03.820Z,5.13
2023-04-20T23:40:07.252Z,5.20
2023-04-20T23:45:09.268Z,4.93
2023-04-20T23:50:11.137Z,5.57
2023-04-20T23:55:12.913Z,5.63
